sensor_id;sensor_type;location;lat;lon;timestamp;P1;durP1;ratioP1;P2;durP2;ratioP2
5965;SDS011;3009;43.224;27.976;2024-03-08T00:00:39;28.60;;;16.10;;
5965;SDS011;3009;43.224;27.976;2024-03-08T00:03:10;25.80;;;15.97;;
5965;SDS011;3009;43.224;27.976;2024-03-08T00:05:39;25.60;;;16.10;;
5965;SDS011;3009;43.224;27.976;2024-03-08T00:08:08;34.83;;;17.00;;
5965;SDS011;3009;43.224;27.976;2024-03-08T00:10:37;28.77;;;14.87;;
5965;SDS011;3009;43.224;27.976;2024-03-08T00:13:06;34.97;;;16.47;;
5965;SDS011;3009;43.224;27.976;2024-03-08T00:15:35;33.83;;;15.63;;
5965;SDS011;3009;43.224;27.976;2024-03-08T00:18:04;30.17;;;15.10;;
5965;SDS011;3009;43.224;27.976;2024-03-08T00:20:34;29.37;;;15.83;;
5965;SDS011;3009;43.224;27.976;2024-03-08T00:23:03;27.87;;;17.17;;
5965;SDS011;3009;43.224;27.976;2024-03-08T00:25:31;24.53;;;15.40;;
5965;SDS011;3009;43.224;27.976;2024-03-08T00:28:00;35.53;;;14.97;;
5965;SDS011;3009;43.224;27.976;2024-03-08T00:30:29;39.83;;;14.90;;
5965;SDS011;3009;43.224;27.976;2024-03-08T00:32:57;37.33;;;15.90;;
5965;SDS011;3009;43.224;27.976;2024-03-08T00:35:26;25.80;;;14.53;;
5965;SDS011;3009;43.224;27.976;2024-03-08T00:37:56;29.80;;;16.23;;
5965;SDS011;3009;43.224;27.976;2024-03-08T00:40:24;23.30;;;15.03;;
5965;SDS011;3009;43.224;27.976;2024-03-08T00:42:55;26.13;;;16.00;;
5965;SDS011;3009;43.224;27.976;2024-03-08T00:45:23;34.63;;;15.37;;
5965;SDS011;3009;43.224;27.976;2024-03-08T00:47:52;25.77;;;15.87;;
5965;SDS011;3009;43.224;27.976;2024-03-08T00:50:21;30.93;;;15.70;;
5965;SDS011;3009;43.224;27.976;2024-03-08T00:52:51;27.47;;;15.33;;
5965;SDS011;3009;43.224;27.976;2024-03-08T00:55:21;33.37;;;15.00;;
5965;SDS011;3009;43.224;27.976;2024-03-08T00:57:50;28.73;;;14.47;;
5965;SDS011;3009;43.224;27.976;2024-03-08T01:00:20;25.00;;;13.27;;
5965;SDS011;3009;43.224;27.976;2024-03-08T01:02:49;25.43;;;14.13;;
5965;SDS011;3009;43.224;27.976;2024-03-08T01:05:17;26.73;;;15.17;;
5965;SDS011;3009;43.224;27.976;2024-03-08T01:07:46;24.00;;;13.13;;
5965;SDS011;3009;43.224;27.976;2024-03-08T01:10:14;34.43;;;16.03;;
5965;SDS011;3009;43.224;27.976;2024-03-08T01:12:44;24.33;;;14.53;;
5965;SDS011;3009;43.224;27.976;2024-03-08T01:15:13;28.23;;;14.40;;
5965;SDS011;3009;43.224;27.976;2024-03-08T01:17:41;30.20;;;15.00;;
5965;SDS011;3009;43.224;27.976;2024-03-08T01:20:10;23.10;;;12.70;;
5965;SDS011;3009;43.224;27.976;2024-03-08T01:22:40;22.03;;;14.40;;
5965;SDS011;3009;43.224;27.976;2024-03-08T01:25:08;32.20;;;13.33;;
5965;SDS011;3009;43.224;27.976;2024-03-08T01:27:37;25.33;;;14.70;;
5965;SDS011;3009;43.224;27.976;2024-03-08T01:30:07;23.47;;;13.47;;
5965;SDS011;3009;43.224;27.976;2024-03-08T01:32:37;24.97;;;14.07;;
5965;SDS011;3009;43.224;27.976;2024-03-08T01:35:06;29.33;;;14.10;;
5965;SDS011;3009;43.224;27.976;2024-03-08T01:37:36;31.90;;;13.97;;
5965;SDS011;3009;43.224;27.976;2024-03-08T01:40:05;33.83;;;16.67;;
5965;SDS011;3009;43.224;27.976;2024-03-08T01:42:35;23.47;;;14.30;;
5965;SDS011;3009;43.224;27.976;2024-03-08T01:45:04;21.33;;;14.00;;
5965;SDS011;3009;43.224;27.976;2024-03-08T01:47:35;16.57;;;11.60;;
5965;SDS011;3009;43.224;27.976;2024-03-08T01:50:05;31.10;;;14.70;;
5965;SDS011;3009;43.224;27.976;2024-03-08T01:52:35;30.03;;;14.53;;
5965;SDS011;3009;43.224;27.976;2024-03-08T01:55:05;27.00;;;16.00;;
5965;SDS011;3009;43.224;27.976;2024-03-08T01:57:34;28.30;;;14.10;;
5965;SDS011;3009;43.224;27.976;2024-03-08T02:00:07;27.60;;;14.60;;
5965;SDS011;3009;43.224;27.976;2024-03-08T02:02:37;25.43;;;14.27;;
5965;SDS011;3009;43.224;27.976;2024-03-08T02:05:11;22.60;;;13.33;;
5965;SDS011;3009;43.224;27.976;2024-03-08T02:07:40;25.40;;;15.03;;
5965;SDS011;3009;43.224;27.976;2024-03-08T02:10:10;17.80;;;11.80;;
5965;SDS011;3009;43.224;27.976;2024-03-08T02:12:39;28.77;;;13.30;;
5965;SDS011;3009;43.224;27.976;2024-03-08T02:15:09;22.87;;;14.77;;
5965;SDS011;3009;43.224;27.976;2024-03-08T02:17:38;22.83;;;13.47;;
5965;SDS011;3009;43.224;27.976;2024-03-08T02:20:07;23.90;;;11.80;;
5965;SDS011;3009;43.224;27.976;2024-03-08T02:22:38;23.23;;;13.07;;
5965;SDS011;3009;43.224;27.976;2024-03-08T02:25:11;23.90;;;13.70;;
5965;SDS011;3009;43.224;27.976;2024-03-08T02:27:39;23.57;;;13.03;;
5965;SDS011;3009;43.224;27.976;2024-03-08T02:30:08;18.90;;;12.47;;
5965;SDS011;3009;43.224;27.976;2024-03-08T02:32:39;27.77;;;15.50;;
5965;SDS011;3009;43.224;27.976;2024-03-08T02:35:08;30.70;;;13.23;;
5965;SDS011;3009;43.224;27.976;2024-03-08T02:37:36;26.10;;;13.60;;
5965;SDS011;3009;43.224;27.976;2024-03-08T02:40:06;22.40;;;13.97;;
5965;SDS011;3009;43.224;27.976;2024-03-08T02:42:35;26.20;;;12.97;;
5965;SDS011;3009;43.224;27.976;2024-03-08T02:45:05;27.10;;;13.83;;
5965;SDS011;3009;43.224;27.976;2024-03-08T02:47:36;23.13;;;13.73;;
5965;SDS011;3009;43.224;27.976;2024-03-08T02:50:05;25.93;;;14.80;;
5965;SDS011;3009;43.224;27.976;2024-03-08T02:52:35;20.30;;;13.30;;
5965;SDS011;3009;43.224;27.976;2024-03-08T02:55:03;22.57;;;11.20;;
5965;SDS011;3009;43.224;27.976;2024-03-08T02:57:38;20.83;;;13.97;;
5965;SDS011;3009;43.224;27.976;2024-03-08T03:00:07;23.13;;;14.67;;
5965;SDS011;3009;43.224;27.976;2024-03-08T03:02:44;25.53;;;14.67;;
5965;SDS011;3009;43.224;27.976;2024-03-08T03:05:12;20.00;;;13.70;;
5965;SDS011;3009;43.224;27.976;2024-03-08T03:07:41;23.40;;;13.53;;
5965;SDS011;3009;43.224;27.976;2024-03-08T03:10:11;18.80;;;12.23;;
5965;SDS011;3009;43.224;27.976;2024-03-08T03:12:43;24.30;;;14.27;;
5965;SDS011;3009;43.224;27.976;2024-03-08T03:15:14;23.40;;;13.17;;
5965;SDS011;3009;43.224;27.976;2024-03-08T03:17:45;22.97;;;14.47;;
5965;SDS011;3009;43.224;27.976;2024-03-08T03:20:15;24.77;;;14.67;;
5965;SDS011;3009;43.224;27.976;2024-03-08T03:22:49;23.10;;;14.13;;
5965;SDS011;3009;43.224;27.976;2024-03-08T03:25:20;23.83;;;14.07;;
5965;SDS011;3009;43.224;27.976;2024-03-08T03:27:52;23.73;;;14.93;;
5965;SDS011;3009;43.224;27.976;2024-03-08T03:30:23;24.57;;;15.40;;
5965;SDS011;3009;43.224;27.976;2024-03-08T03:32:53;23.20;;;14.53;;
5965;SDS011;3009;43.224;27.976;2024-03-08T03:35:23;22.93;;;14.80;;
5965;SDS011;3009;43.224;27.976;2024-03-08T03:37:52;28.80;;;15.17;;
5965;SDS011;3009;43.224;27.976;2024-03-08T03:40:30;23.43;;;14.00;;
5965;SDS011;3009;43.224;27.976;2024-03-08T03:42:59;25.10;;;13.40;;
5965;SDS011;3009;43.224;27.976;2024-03-08T03:45:27;24.97;;;14.97;;
5965;SDS011;3009;43.224;27.976;2024-03-08T03:48:01;26.13;;;13.77;;
5965;SDS011;3009;43.224;27.976;2024-03-08T03:50:30;20.60;;;14.00;;
5965;SDS011;3009;43.224;27.976;2024-03-08T03:53:02;31.00;;;14.13;;
5965;SDS011;3009;43.224;27.976;2024-03-08T03:55:35;24.00;;;14.37;;
5965;SDS011;3009;43.224;27.976;2024-03-08T03:58:06;29.83;;;14.43;;
5965;SDS011;3009;43.224;27.976;2024-03-08T04:00:37;26.67;;;15.10;;
5965;SDS011;3009;43.224;27.976;2024-03-08T04:03:07;26.27;;;13.60;;
5965;SDS011;3009;43.224;27.976;2024-03-08T04:05:36;23.50;;;14.67;;
5965;SDS011;3009;43.224;27.976;2024-03-08T04:08:04;20.90;;;13.50;;
5965;SDS011;3009;43.224;27.976;2024-03-08T04:10:33;24.27;;;13.63;;
5965;SDS011;3009;43.224;27.976;2024-03-08T04:13:03;27.77;;;15.00;;
5965;SDS011;3009;43.224;27.976;2024-03-08T04:15:31;22.97;;;14.03;;
5965;SDS011;3009;43.224;27.976;2024-03-08T04:18:00;28.90;;;16.07;;
5965;SDS011;3009;43.224;27.976;2024-03-08T04:20:29;27.20;;;15.07;;
5965;SDS011;3009;43.224;27.976;2024-03-08T04:22:58;27.60;;;13.87;;
5965;SDS011;3009;43.224;27.976;2024-03-08T04:25:26;25.63;;;13.83;;
5965;SDS011;3009;43.224;27.976;2024-03-08T04:27:55;23.60;;;14.10;;
5965;SDS011;3009;43.224;27.976;2024-03-08T04:30:25;35.57;;;16.00;;
5965;SDS011;3009;43.224;27.976;2024-03-08T04:32:55;25.13;;;14.27;;
5965;SDS011;3009;43.224;27.976;2024-03-08T04:35:23;23.47;;;14.07;;
5965;SDS011;3009;43.224;27.976;2024-03-08T04:37:52;23.80;;;14.00;;
5965;SDS011;3009;43.224;27.976;2024-03-08T04:40:20;24.67;;;14.37;;
5965;SDS011;3009;43.224;27.976;2024-03-08T04:42:49;29.37;;;14.60;;
5965;SDS011;3009;43.224;27.976;2024-03-08T04:45:18;28.20;;;15.50;;
5965;SDS011;3009;43.224;27.976;2024-03-08T04:47:49;22.80;;;13.47;;
5965;SDS011;3009;43.224;27.976;2024-03-08T04:50:19;26.47;;;15.27;;
5965;SDS011;3009;43.224;27.976;2024-03-08T04:52:48;30.53;;;13.50;;
5965;SDS011;3009;43.224;27.976;2024-03-08T04:55:17;23.53;;;13.63;;
5965;SDS011;3009;43.224;27.976;2024-03-08T04:57:48;26.27;;;16.90;;
5965;SDS011;3009;43.224;27.976;2024-03-08T05:00:16;23.30;;;14.37;;
5965;SDS011;3009;43.224;27.976;2024-03-08T05:02:46;24.50;;;14.90;;
5965;SDS011;3009;43.224;27.976;2024-03-08T05:05:22;25.43;;;14.57;;
5965;SDS011;3009;43.224;27.976;2024-03-08T05:07:51;27.80;;;16.20;;
5965;SDS011;3009;43.224;27.976;2024-03-08T05:10:20;26.20;;;14.73;;
5965;SDS011;3009;43.224;27.976;2024-03-08T05:12:49;28.20;;;15.93;;
5965;SDS011;3009;43.224;27.976;2024-03-08T05:15:22;30.13;;;16.93;;
5965;SDS011;3009;43.224;27.976;2024-03-08T05:17:51;28.70;;;17.40;;
5965;SDS011;3009;43.224;27.976;2024-03-08T05:20:22;24.83;;;15.60;;
5965;SDS011;3009;43.224;27.976;2024-03-08T05:22:51;27.43;;;15.17;;
5965;SDS011;3009;43.224;27.976;2024-03-08T05:25:19;37.77;;;16.97;;
5965;SDS011;3009;43.224;27.976;2024-03-08T05:27:48;32.27;;;16.90;;
5965;SDS011;3009;43.224;27.976;2024-03-08T05:30:17;31.07;;;16.17;;
5965;SDS011;3009;43.224;27.976;2024-03-08T05:32:48;31.73;;;16.90;;
5965;SDS011;3009;43.224;27.976;2024-03-08T05:35:17;27.00;;;16.10;;
5965;SDS011;3009;43.224;27.976;2024-03-08T05:37:49;28.63;;;17.30;;
5965;SDS011;3009;43.224;27.976;2024-03-08T05:40:17;27.27;;;15.80;;
5965;SDS011;3009;43.224;27.976;2024-03-08T05:42:48;27.57;;;16.67;;
5965;SDS011;3009;43.224;27.976;2024-03-08T05:45:17;31.80;;;15.67;;
5965;SDS011;3009;43.224;27.976;2024-03-08T05:47:45;26.80;;;14.67;;
5965;SDS011;3009;43.224;27.976;2024-03-08T05:50:14;41.30;;;17.53;;
5965;SDS011;3009;43.224;27.976;2024-03-08T05:52:43;34.70;;;16.20;;
5965;SDS011;3009;43.224;27.976;2024-03-08T05:55:13;41.13;;;16.77;;
5965;SDS011;3009;43.224;27.976;2024-03-08T05:57:42;33.00;;;16.33;;
5965;SDS011;3009;43.224;27.976;2024-03-08T06:00:12;25.73;;;15.77;;
5965;SDS011;3009;43.224;27.976;2024-03-08T06:02:42;36.30;;;16.00;;
5965;SDS011;3009;43.224;27.976;2024-03-08T06:05:11;26.53;;;15.23;;
5965;SDS011;3009;43.224;27.976;2024-03-08T06:07:39;37.57;;;17.10;;
5965;SDS011;3009;43.224;27.976;2024-03-08T06:10:08;30.87;;;16.57;;
5965;SDS011;3009;43.224;27.976;2024-03-08T06:12:41;33.03;;;16.10;;
5965;SDS011;3009;43.224;27.976;2024-03-08T06:15:09;31.93;;;17.60;;
5965;SDS011;3009;43.224;27.976;2024-03-08T06:17:41;29.00;;;15.30;;
5965;SDS011;3009;43.224;27.976;2024-03-08T06:20:11;35.27;;;14.70;;
5965;SDS011;3009;43.224;27.976;2024-03-08T06:22:40;34.00;;;16.03;;
5965;SDS011;3009;43.224;27.976;2024-03-08T06:25:09;30.23;;;16.30;;
5965;SDS011;3009;43.224;27.976;2024-03-08T06:27:42;31.60;;;15.53;;
5965;SDS011;3009;43.224;27.976;2024-03-08T06:30:13;24.73;;;15.43;;
5965;SDS011;3009;43.224;27.976;2024-03-08T06:32:43;25.40;;;15.33;;
5965;SDS011;3009;43.224;27.976;2024-03-08T06:35:11;29.03;;;14.83;;
5965;SDS011;3009;43.224;27.976;2024-03-08T06:37:43;28.17;;;14.67;;
5965;SDS011;3009;43.224;27.976;2024-03-08T06:40:12;23.37;;;14.60;;
5965;SDS011;3009;43.224;27.976;2024-03-08T06:42:42;31.30;;;16.50;;
5965;SDS011;3009;43.224;27.976;2024-03-08T06:45:12;27.63;;;14.60;;
5965;SDS011;3009;43.224;27.976;2024-03-08T06:47:45;23.53;;;14.00;;
5965;SDS011;3009;43.224;27.976;2024-03-08T06:50:14;26.40;;;16.90;;
5965;SDS011;3009;43.224;27.976;2024-03-08T06:52:43;25.20;;;14.80;;
5965;SDS011;3009;43.224;27.976;2024-03-08T06:55:14;25.63;;;14.93;;
5965;SDS011;3009;43.224;27.976;2024-03-08T06:57:45;26.27;;;14.40;;
5965;SDS011;3009;43.224;27.976;2024-03-08T07:00:14;20.27;;;12.90;;
5965;SDS011;3009;43.224;27.976;2024-03-08T07:02:45;22.50;;;13.73;;
5965;SDS011;3009;43.224;27.976;2024-03-08T07:05:15;20.77;;;13.90;;
5965;SDS011;3009;43.224;27.976;2024-03-08T07:07:44;23.40;;;14.47;;
5965;SDS011;3009;43.224;27.976;2024-03-08T07:10:15;29.87;;;14.00;;
5965;SDS011;3009;43.224;27.976;2024-03-08T07:12:45;24.30;;;13.33;;
5965;SDS011;3009;43.224;27.976;2024-03-08T07:15:13;24.03;;;14.03;;
5965;SDS011;3009;43.224;27.976;2024-03-08T07:17:42;26.10;;;14.83;;
5965;SDS011;3009;43.224;27.976;2024-03-08T07:20:12;29.17;;;15.90;;
5965;SDS011;3009;43.224;27.976;2024-03-08T07:22:42;26.73;;;15.03;;
5965;SDS011;3009;43.224;27.976;2024-03-08T07:25:14;26.67;;;14.47;;
5965;SDS011;3009;43.224;27.976;2024-03-08T07:27:51;26.80;;;14.20;;
5965;SDS011;3009;43.224;27.976;2024-03-08T07:30:20;29.70;;;15.83;;
5965;SDS011;3009;43.224;27.976;2024-03-08T07:33:07;28.03;;;16.40;;
5965;SDS011;3009;43.224;27.976;2024-03-08T07:35:39;26.13;;;15.87;;
5965;SDS011;3009;43.224;27.976;2024-03-08T07:38:09;23.47;;;14.47;;
5965;SDS011;3009;43.224;27.976;2024-03-08T07:40:38;26.97;;;16.13;;
5965;SDS011;3009;43.224;27.976;2024-03-08T07:43:13;24.67;;;14.10;;
5965;SDS011;3009;43.224;27.976;2024-03-08T07:45:41;22.47;;;13.60;;
5965;SDS011;3009;43.224;27.976;2024-03-08T07:48:10;29.20;;;14.67;;
5965;SDS011;3009;43.224;27.976;2024-03-08T07:50:40;36.73;;;14.67;;
5965;SDS011;3009;43.224;27.976;2024-03-08T07:53:09;26.67;;;14.27;;
5965;SDS011;3009;43.224;27.976;2024-03-08T07:55:37;24.13;;;15.10;;
5965;SDS011;3009;43.224;27.976;2024-03-08T07:58:09;30.37;;;14.17;;
5965;SDS011;3009;43.224;27.976;2024-03-08T08:00:41;22.43;;;13.97;;
5965;SDS011;3009;43.224;27.976;2024-03-08T08:03:10;25.50;;;16.43;;
5965;SDS011;3009;43.224;27.976;2024-03-08T08:05:39;25.40;;;15.70;;
5965;SDS011;3009;43.224;27.976;2024-03-08T08:08:07;23.03;;;15.40;;
5965;SDS011;3009;43.224;27.976;2024-03-08T08:10:38;31.07;;;16.53;;
5965;SDS011;3009;43.224;27.976;2024-03-08T08:13:06;22.70;;;14.37;;
5965;SDS011;3009;43.224;27.976;2024-03-08T08:15:35;24.10;;;14.87;;
5965;SDS011;3009;43.224;27.976;2024-03-08T08:18:05;21.53;;;14.53;;
5965;SDS011;3009;43.224;27.976;2024-03-08T08:20:36;22.30;;;14.03;;
5965;SDS011;3009;43.224;27.976;2024-03-08T08:23:05;26.70;;;14.43;;
5965;SDS011;3009;43.224;27.976;2024-03-08T08:25:33;24.87;;;13.80;;
5965;SDS011;3009;43.224;27.976;2024-03-08T08:28:02;25.20;;;16.37;;
5965;SDS011;3009;43.224;27.976;2024-03-08T08:30:31;32.67;;;14.17;;
5965;SDS011;3009;43.224;27.976;2024-03-08T08:33:00;24.47;;;14.43;;
5965;SDS011;3009;43.224;27.976;2024-03-08T08:35:30;22.13;;;13.90;;
5965;SDS011;3009;43.224;27.976;2024-03-08T08:37:59;26.43;;;13.00;;
5965;SDS011;3009;43.224;27.976;2024-03-08T08:40:30;54.83;;;16.20;;
5965;SDS011;3009;43.224;27.976;2024-03-08T08:42:59;26.40;;;14.87;;
5965;SDS011;3009;43.224;27.976;2024-03-08T08:45:30;29.50;;;14.10;;
5965;SDS011;3009;43.224;27.976;2024-03-08T08:47:58;23.63;;;13.90;;
5965;SDS011;3009;43.224;27.976;2024-03-08T08:50:27;20.70;;;13.10;;
5965;SDS011;3009;43.224;27.976;2024-03-08T08:52:57;23.07;;;14.60;;
5965;SDS011;3009;43.224;27.976;2024-03-08T08:55:26;23.77;;;14.30;;
5965;SDS011;3009;43.224;27.976;2024-03-08T08:57:55;22.83;;;14.23;;
5965;SDS011;3009;43.224;27.976;2024-03-08T09:00:24;22.63;;;13.20;;
5965;SDS011;3009;43.224;27.976;2024-03-08T09:02:54;19.73;;;13.87;;
5965;SDS011;3009;43.224;27.976;2024-03-08T09:05:25;25.37;;;14.20;;
5965;SDS011;3009;43.224;27.976;2024-03-08T09:07:53;24.67;;;13.93;;
5965;SDS011;3009;43.224;27.976;2024-03-08T09:10:24;19.40;;;13.60;;
5965;SDS011;3009;43.224;27.976;2024-03-08T09:12:55;23.53;;;14.00;;
5965;SDS011;3009;43.224;27.976;2024-03-08T09:15:23;25.57;;;13.47;;
5965;SDS011;3009;43.224;27.976;2024-03-08T09:17:55;27.17;;;15.10;;
5965;SDS011;3009;43.224;27.976;2024-03-08T09:20:24;22.70;;;13.70;;
5965;SDS011;3009;43.224;27.976;2024-03-08T09:22:53;23.47;;;14.00;;
5965;SDS011;3009;43.224;27.976;2024-03-08T09:25:22;22.13;;;15.50;;
5965;SDS011;3009;43.224;27.976;2024-03-08T09:27:52;20.57;;;13.67;;
5965;SDS011;3009;43.224;27.976;2024-03-08T09:30:20;37.93;;;14.90;;
5965;SDS011;3009;43.224;27.976;2024-03-08T09:32:49;22.67;;;13.73;;
5965;SDS011;3009;43.224;27.976;2024-03-08T09:35:20;25.43;;;15.77;;
5965;SDS011;3009;43.224;27.976;2024-03-08T09:37:48;24.50;;;14.37;;
5965;SDS011;3009;43.224;27.976;2024-03-08T09:40:18;22.93;;;14.93;;
5965;SDS011;3009;43.224;27.976;2024-03-08T09:42:49;27.30;;;15.20;;
5965;SDS011;3009;43.224;27.976;2024-03-08T09:45:19;30.03;;;14.70;;
5965;SDS011;3009;43.224;27.976;2024-03-08T09:47:50;24.13;;;14.67;;
5965;SDS011;3009;43.224;27.976;2024-03-08T09:50:19;32.33;;;14.07;;
5965;SDS011;3009;43.224;27.976;2024-03-08T09:52:48;25.13;;;14.73;;
5965;SDS011;3009;43.224;27.976;2024-03-08T09:55:17;17.27;;;11.50;;
5965;SDS011;3009;43.224;27.976;2024-03-08T09:57:51;26.70;;;15.43;;
5965;SDS011;3009;43.224;27.976;2024-03-08T10:00:39;20.50;;;15.17;;
5965;SDS011;3009;43.224;27.976;2024-03-08T10:03:08;27.40;;;15.50;;
5965;SDS011;3009;43.224;27.976;2024-03-08T10:05:40;27.43;;;16.07;;
5965;SDS011;3009;43.224;27.976;2024-03-08T10:08:12;21.90;;;14.00;;
5965;SDS011;3009;43.224;27.976;2024-03-08T10:10:41;25.10;;;13.70;;
5965;SDS011;3009;43.224;27.976;2024-03-08T10:13:12;28.90;;;14.70;;
5965;SDS011;3009;43.224;27.976;2024-03-08T10:15:43;22.87;;;13.67;;
5965;SDS011;3009;43.224;27.976;2024-03-08T10:18:12;23.93;;;13.63;;
5965;SDS011;3009;43.224;27.976;2024-03-08T10:20:41;23.50;;;13.50;;
5965;SDS011;3009;43.224;27.976;2024-03-08T10:23:09;26.20;;;17.33;;
5965;SDS011;3009;43.224;27.976;2024-03-08T10:25:38;24.97;;;13.87;;
5965;SDS011;3009;43.224;27.976;2024-03-08T10:28:07;28.93;;;16.30;;
5965;SDS011;3009;43.224;27.976;2024-03-08T10:30:36;32.27;;;14.07;;
5965;SDS011;3009;43.224;27.976;2024-03-08T10:33:05;20.23;;;10.20;;
5965;SDS011;3009;43.224;27.976;2024-03-08T10:35:34;24.57;;;14.13;;
5965;SDS011;3009;43.224;27.976;2024-03-08T10:38:03;29.57;;;13.50;;
5965;SDS011;3009;43.224;27.976;2024-03-08T10:40:36;22.50;;;13.53;;
5965;SDS011;3009;43.224;27.976;2024-03-08T10:43:09;31.00;;;14.53;;
5965;SDS011;3009;43.224;27.976;2024-03-08T10:45:48;23.87;;;14.40;;
5965;SDS011;3009;43.224;27.976;2024-03-08T10:48:20;23.83;;;13.90;;
5965;SDS011;3009;43.224;27.976;2024-03-08T10:51:04;21.70;;;13.87;;
5965;SDS011;3009;43.224;27.976;2024-03-08T10:53:34;27.97;;;15.10;;
5965;SDS011;3009;43.224;27.976;2024-03-08T10:56:08;25.53;;;14.50;;
5965;SDS011;3009;43.224;27.976;2024-03-08T10:58:37;42.47;;;21.80;;
5965;SDS011;3009;43.224;27.976;2024-03-08T11:01:08;28.43;;;16.07;;
5965;SDS011;3009;43.224;27.976;2024-03-08T11:03:46;33.33;;;14.23;;
5965;SDS011;3009;43.224;27.976;2024-03-08T11:06:21;25.73;;;15.00;;
5965;SDS011;3009;43.224;27.976;2024-03-08T11:08:57;23.87;;;13.27;;
5965;SDS011;3009;43.224;27.976;2024-03-08T11:11:26;26.53;;;13.37;;
5965;SDS011;3009;43.224;27.976;2024-03-08T11:14:00;24.97;;;13.90;;
5965;SDS011;3009;43.224;27.976;2024-03-08T11:16:39;23.63;;;13.40;;
5965;SDS011;3009;43.224;27.976;2024-03-08T11:19:24;20.60;;;13.00;;
5965;SDS011;3009;43.224;27.976;2024-03-08T11:22:02;24.03;;;13.20;;
5965;SDS011;3009;43.224;27.976;2024-03-08T11:24:38;25.93;;;14.47;;
5965;SDS011;3009;43.224;27.976;2024-03-08T11:27:11;28.13;;;14.00;;
5965;SDS011;3009;43.224;27.976;2024-03-08T11:29:40;21.53;;;13.10;;
5965;SDS011;3009;43.224;27.976;2024-03-08T11:32:11;26.00;;;13.73;;
5965;SDS011;3009;43.224;27.976;2024-03-08T11:34:40;24.13;;;14.70;;
5965;SDS011;3009;43.224;27.976;2024-03-08T11:37:11;23.10;;;14.27;;
5965;SDS011;3009;43.224;27.976;2024-03-08T11:39:46;19.60;;;13.30;;
5965;SDS011;3009;43.224;27.976;2024-03-08T11:42:16;21.90;;;13.33;;
5965;SDS011;3009;43.224;27.976;2024-03-08T11:44:46;19.33;;;13.43;;
5965;SDS011;3009;43.224;27.976;2024-03-08T11:47:16;27.20;;;13.47;;
5965;SDS011;3009;43.224;27.976;2024-03-08T11:49:44;31.73;;;12.83;;
5965;SDS011;3009;43.224;27.976;2024-03-08T11:52:15;21.53;;;12.80;;
5965;SDS011;3009;43.224;27.976;2024-03-08T11:54:47;21.60;;;12.67;;
5965;SDS011;3009;43.224;27.976;2024-03-08T11:57:25;18.10;;;12.10;;
5965;SDS011;3009;43.224;27.976;2024-03-08T11:59:55;19.83;;;11.17;;
5965;SDS011;3009;43.224;27.976;2024-03-08T12:02:25;21.10;;;12.20;;
5965;SDS011;3009;43.224;27.976;2024-03-08T12:04:57;28.50;;;12.73;;
5965;SDS011;3009;43.224;27.976;2024-03-08T12:07:28;25.63;;;13.87;;
5965;SDS011;3009;43.224;27.976;2024-03-08T12:10:16;23.67;;;13.47;;
5965;SDS011;3009;43.224;27.976;2024-03-08T12:12:46;19.00;;;12.20;;
5965;SDS011;3009;43.224;27.976;2024-03-08T12:15:16;15.33;;;9.63;;
5965;SDS011;3009;43.224;27.976;2024-03-08T12:17:48;26.50;;;15.23;;
5965;SDS011;3009;43.224;27.976;2024-03-08T12:20:20;27.37;;;16.67;;
5965;SDS011;3009;43.224;27.976;2024-03-08T12:22:51;31.93;;;17.47;;
5965;SDS011;3009;43.224;27.976;2024-03-08T12:25:20;26.70;;;14.10;;
5965;SDS011;3009;43.224;27.976;2024-03-08T12:27:49;29.33;;;16.23;;
5965;SDS011;3009;43.224;27.976;2024-03-08T12:30:19;25.83;;;12.90;;
5965;SDS011;3009;43.224;27.976;2024-03-08T12:32:53;16.20;;;10.97;;
5965;SDS011;3009;43.224;27.976;2024-03-08T12:35:25;28.30;;;14.20;;
5965;SDS011;3009;43.224;27.976;2024-03-08T12:37:54;20.87;;;11.80;;
5965;SDS011;3009;43.224;27.976;2024-03-08T12:40:27;25.57;;;11.50;;
5965;SDS011;3009;43.224;27.976;2024-03-08T12:42:56;16.83;;;11.33;;
5965;SDS011;3009;43.224;27.976;2024-03-08T12:45:25;23.07;;;11.93;;
5965;SDS011;3009;43.224;27.976;2024-03-08T12:47:55;20.43;;;11.30;;
5965;SDS011;3009;43.224;27.976;2024-03-08T12:50:25;20.00;;;9.97;;
5965;SDS011;3009;43.224;27.976;2024-03-08T12:52:54;18.83;;;11.50;;
5965;SDS011;3009;43.224;27.976;2024-03-08T12:55:22;26.10;;;12.57;;
5965;SDS011;3009;43.224;27.976;2024-03-08T12:57:51;22.83;;;11.90;;
5965;SDS011;3009;43.224;27.976;2024-03-08T13:00:20;26.37;;;12.63;;
5965;SDS011;3009;43.224;27.976;2024-03-08T13:02:50;22.43;;;12.53;;
5965;SDS011;3009;43.224;27.976;2024-03-08T13:05:20;23.50;;;12.80;;
5965;SDS011;3009;43.224;27.976;2024-03-08T13:07:49;19.83;;;11.23;;
5965;SDS011;3009;43.224;27.976;2024-03-08T13:10:20;35.57;;;14.20;;
5965;SDS011;3009;43.224;27.976;2024-03-08T13:12:49;19.93;;;11.60;;
5965;SDS011;3009;43.224;27.976;2024-03-08T13:15:20;24.10;;;12.77;;
5965;SDS011;3009;43.224;27.976;2024-03-08T13:17:48;17.80;;;10.57;;
5965;SDS011;3009;43.224;27.976;2024-03-08T13:20:17;24.07;;;12.77;;
5965;SDS011;3009;43.224;27.976;2024-03-08T13:22:58;26.10;;;12.60;;
5965;SDS011;3009;43.224;27.976;2024-03-08T13:25:28;14.57;;;9.60;;
5965;SDS011;3009;43.224;27.976;2024-03-08T13:27:57;16.70;;;11.10;;
5965;SDS011;3009;43.224;27.976;2024-03-08T13:30:27;25.13;;;11.83;;
5965;SDS011;3009;43.224;27.976;2024-03-08T13:32:55;19.60;;;11.17;;
5965;SDS011;3009;43.224;27.976;2024-03-08T13:35:23;25.37;;;12.40;;
5965;SDS011;3009;43.224;27.976;2024-03-08T13:37:53;21.00;;;11.97;;
5965;SDS011;3009;43.224;27.976;2024-03-08T13:40:23;17.97;;;10.67;;
5965;SDS011;3009;43.224;27.976;2024-03-08T13:42:52;19.73;;;12.80;;
5965;SDS011;3009;43.224;27.976;2024-03-08T13:45:21;17.63;;;11.50;;
5965;SDS011;3009;43.224;27.976;2024-03-08T13:47:51;19.40;;;12.00;;
5965;SDS011;3009;43.224;27.976;2024-03-08T13:50:21;21.40;;;12.00;;
5965;SDS011;3009;43.224;27.976;2024-03-08T13:52:50;21.40;;;11.23;;
5965;SDS011;3009;43.224;27.976;2024-03-08T13:55:24;21.50;;;11.27;;
5965;SDS011;3009;43.224;27.976;2024-03-08T13:57:54;15.13;;;9.40;;
5965;SDS011;3009;43.224;27.976;2024-03-08T14:00:24;24.40;;;10.00;;
5965;SDS011;3009;43.224;27.976;2024-03-08T14:02:56;24.23;;;10.07;;
5965;SDS011;3009;43.224;27.976;2024-03-08T14:05:24;13.27;;;10.30;;
5965;SDS011;3009;43.224;27.976;2024-03-08T14:07:53;20.60;;;11.43;;
5965;SDS011;3009;43.224;27.976;2024-03-08T14:10:23;18.70;;;10.57;;
5965;SDS011;3009;43.224;27.976;2024-03-08T14:12:53;27.40;;;10.67;;
5965;SDS011;3009;43.224;27.976;2024-03-08T14:15:22;28.10;;;13.00;;
5965;SDS011;3009;43.224;27.976;2024-03-08T14:17:54;19.80;;;11.43;;
5965;SDS011;3009;43.224;27.976;2024-03-08T14:20:24;19.40;;;10.30;;
5965;SDS011;3009;43.224;27.976;2024-03-08T14:22:53;13.60;;;9.43;;
5965;SDS011;3009;43.224;27.976;2024-03-08T14:25:24;17.00;;;10.03;;
5965;SDS011;3009;43.224;27.976;2024-03-08T14:27:53;17.13;;;10.13;;
5965;SDS011;3009;43.224;27.976;2024-03-08T14:30:25;17.60;;;9.87;;
5965;SDS011;3009;43.224;27.976;2024-03-08T14:33:10;18.93;;;11.27;;
5965;SDS011;3009;43.224;27.976;2024-03-08T14:35:40;18.10;;;10.80;;
5965;SDS011;3009;43.224;27.976;2024-03-08T14:38:09;24.23;;;11.47;;
5965;SDS011;3009;43.224;27.976;2024-03-08T14:40:41;16.10;;;10.13;;
5965;SDS011;3009;43.224;27.976;2024-03-08T14:43:13;29.00;;;12.63;;
5965;SDS011;3009;43.224;27.976;2024-03-08T14:45:43;18.33;;;11.33;;
5965;SDS011;3009;43.224;27.976;2024-03-08T14:48:14;13.20;;;9.80;;
5965;SDS011;3009;43.224;27.976;2024-03-08T14:50:42;17.00;;;9.93;;
5965;SDS011;3009;43.224;27.976;2024-03-08T14:53:12;16.70;;;9.00;;